This is the latest recevied weather packets stored in our database for station/object PA3DZX-13. If no packets are shown the sender has not sent any weather packets the latest 1 day(s).
| Time | Temp. | Humidity | Pressure | Rain* | Wind** | Luminosity | Snow |
|---|---|---|---|---|---|---|---|
| 1836274675 | 16.67° C | 74% | 1015.1 hPa | 0 mm | 2.68 m/s, 183° | - | - |
| 1778021695 | 8.89° C | 95% | 1009.1 hPa | 0 mm | 3.58 m/s, 13° | - | - |
| 1778020795 | 8.89° C | 95% | 1009.1 hPa | 0 mm | 3.58 m/s, 9° | - | - |
| 1778019895 | 8.89° C | 94% | 1009.2 hPa | 0 mm | 3.58 m/s, 9° | - | - |
| 1778018994 | 8.89° C | 92% | 1009.3 hPa | 0 mm | 4.92 m/s, 9° | - | - |
| 1778018093 | 8.89° C | 91% | 1009.3 hPa | 0 mm | 3.58 m/s, 7° | - | - |
| 1778017193 | 10° C | 88% | 1009.5 hPa | 0 mm | 3.58 m/s, 9° | - | - |
| 1778016293 | 10° C | 87% | 1009.5 hPa | 0 mm | 4.92 m/s, 18° | - | - |
| 1778015393 | 10° C | 85% | 1009.6 hPa | 0 mm | 4.92 m/s, 7° | - | - |
| 1778014492 | 10° C | 84% | 1009.5 hPa | 0 mm | 3.58 m/s, 12° | - | - |
| 1778013591 | 10° C | 83% | 1009.5 hPa | 0 mm | 4.92 m/s, 19° | - | - |
| 1778012691 | 10° C | 82% | 1009.5 hPa | 0 mm | 3.58 m/s, 14° | - | - |
| 1778011791 | 10.56° C | 82% | 1009.4 hPa | 0 mm | 3.58 m/s, 10° | - | - |
| 1778010890 | 10.56° C | 82% | 1009.4 hPa | 0 mm | 2.68 m/s, 11° | - | - |
| 1778010001 | 10.56° C | 83% | 1009.3 hPa | 0 mm | 2.68 m/s, 10° | - | - |
| 1778009088 | 10.56° C | 82% | 1009.2 hPa | 0 mm | 2.68 m/s, 1° | - | - |
| 1778008188 | 10.56° C | 83% | 1009.1 hPa | 0 mm | 2.68 m/s, 5° | - | - |
| 1778007287 | 10.56° C | 83% | 1009.2 hPa | 0 mm | 2.68 m/s, 4° | - | - |
| 1778006387 | 10.56° C | 83% | 1009.2 hPa | 0 mm | 2.68 m/s, 4° | - | - |
| 1778005486 | 10.56° C | 84% | 1009.2 hPa | 0 mm | 2.68 m/s, 5° | - | - |
| 1778004585 | 10.56° C | 85% | 1009.2 hPa | 0 mm | 1.79 m/s, 12° | - | - |
| 1778003685 | 10.56° C | 85% | 1009.2 hPa | 0 mm | 2.68 m/s, 14° | - | - |
| 1778002784 | 10.56° C | 86% | 1009.3 hPa | 0 mm | 2.68 m/s, 13° | - | - |
| 1778001884 | 10.56° C | 86% | 1009.3 hPa | 0 mm | 2.68 m/s, 6° | - | - |
| 1778000983 | 10.56° C | 85% | 1009.5 hPa | 0 mm | 2.68 m/s, 10° | - | - |
* Rain latest hour (hover to see other rain measurements)
** Current wind speed in m/s (hover to see current wind gust speed)